Time;durP1;ratioP1;P1;durP2;ratioP2;P2;SDS_P1;SDS_P2;PMS_P1;PMS_P2;Temp;Humidity;BMP_temperature;BMP_pressure;BME280_temperature;BME280_humidity;BME280_pressure;Samples;Min_cycle;Max_cycle;Signal;HPM_P1;HPM_P2
2023/10/31 09:12:50;;;;;;;1.58;0.70;;;21.40;69.60;;;;;;6237985;23;20575;-93
2023/10/31 09:37:48;;;;;;;1.63;1.05;;;22.30;67.80;;;;;;6237451;22;20227;-90
2023/10/31 09:40:23;;;;;;;0.43;0.43;;;22.30;68.30;;;;;;6271571;22;20194;-86
2023/10/31 09:42:52;;;;;;;0.40;0.40;;;22.40;67.40;;;;;;6270155;22;20166;-84
2023/10/31 09:45:29;;;;;;;4.32;0.85;;;22.50;66.90;;;;;;6268746;22;20186;-87
2023/10/31 09:48:01;;;;;;;1.48;1.17;;;22.60;66.30;;;;;;6271983;22;20169;-85
2023/10/31 09:50:31;;;;;;;1.35;1.25;;;22.60;65.50;;;;;;6273294;22;20235;-86
2023/10/31 09:53:05;;;;;;;0.43;0.43;;;22.70;65.70;;;;;;6272935;22;20552;-85
2023/10/31 09:55:35;;;;;;;6.22;0.80;;;22.70;64.40;;;;;;6272114;22;20216;-85
2023/10/31 09:58:09;;;;;;;1.02;0.93;;;22.80;64.40;;;;;;6272714;22;20215;-86
2023/10/31 10:00:40;;;;;;;1.45;1.10;;;22.90;64.30;;;;;;6272894;22;20180;-85
2023/10/31 10:03:11;;;;;;;0.75;0.70;;;22.90;63.30;;;;;;6272483;22;20172;-84
2023/10/31 10:05:41;;;;;;;1.23;0.43;;;23.00;63.80;;;;;;6274801;22;20193;-86
2023/10/31 10:08:15;;;;;;;0.98;0.98;;;23.00;63.00;;;;;;6273183;22;20161;-87
2023/10/31 10:11:19;;;;;;;0.82;0.55;;;23.10;62.90;;;;;;6272986;22;20170;-87
2023/10/31 10:14:08;;;;;;;;;;;;;;;;;;;;;
2023/10/31 10:16:55;;;;;;;0.80;0.80;;;23.30;63.30;;;;;;6271400;22;20692;-89
2023/10/31 10:19:26;;;;;;;1.00;0.75;;;23.40;62.50;;;;;;6271586;22;20525;-86
2023/10/31 10:21:57;;;;;;;1.15;1.05;;;23.50;63.10;;;;;;6271742;22;20185;-88
2023/10/31 10:24:28;;;;;;;1.25;0.65;;;23.50;63.20;;;;;;6274222;22;20623;-87
2023/10/31 10:26:57;;;;;;;0.73;0.73;;;23.60;63.30;;;;;;6274791;22;20194;-87
2023/10/31 10:29:31;;;;;;;1.83;1.25;;;23.70;62.50;;;;;;6272553;22;20253;-87
2023/10/31 10:32:00;;;;;;;2.42;1.20;;;23.70;62.40;;;;;;6272551;22;20602;-83
2023/10/31 10:34:28;;;;;;;1.20;1.10;;;23.80;61.60;;;;;;6272480;22;20198;-83
2023/10/31 10:36:59;;;;;;;3.67;3.35;;;23.90;61.60;;;;;;6270552;22;20177;-83
2023/10/31 10:39:33;;;;;;;8.25;4.93;;;23.90;61.60;;;;;;6269120;22;20193;-86
2023/10/31 10:42:07;;;;;;;22.73;9.40;;;24.00;61.60;;;;;;6270667;22;20170;-83
2023/10/31 10:44:38;;;;;;;3.30;2.13;;;24.10;61.20;;;;;;6271337;22;20169;-85
2023/10/31 10:47:08;;;;;;;4.78;2.00;;;24.10;60.20;;;;;;6269237;22;20523;-83
2023/10/31 10:49:38;;;;;;;12.15;3.72;;;24.10;60.20;;;;;;6272834;22;20177;-85
2023/10/31 10:52:19;;;;;;;18.70;10.70;;;24.20;59.50;;;;;;6274356;22;20154;-87
2023/10/31 10:54:55;;;;;;;25.92;9.95;;;24.20;59.70;;;;;;6273482;22;20188;-84
2023/10/31 10:57:33;;;;;;;9.32;5.00;;;24.30;60.20;;;;;;6273992;22;20207;-86
2023/10/31 11:00:05;;;;;;;7.93;3.05;;;24.40;59.90;;;;;;6273895;22;20229;-87
2023/10/31 11:02:37;;;;;;;2.17;1.95;;;24.50;60.10;;;;;;6270191;22;20168;-85
2023/10/31 11:05:08;;;;;;;6.72;1.30;;;24.50;60.40;;;;;;6273331;22;20465;-87
2023/10/31 11:07:38;;;;;;;3.60;1.73;;;24.60;59.70;;;;;;6273686;22;20237;-87
2023/10/31 11:10:10;;;;;;;0.68;0.60;;;24.60;58.90;;;;;;6274446;22;20150;-84
2023/10/31 11:12:39;;;;;;;4.28;0.93;;;24.60;58.20;;;;;;6273783;22;20154;-84
2023/10/31 11:15:10;;;;;;;0.80;0.77;;;24.70;58.50;;;;;;6270883;22;20260;-85
2023/10/31 11:17:41;;;;;;;0.80;0.55;;;24.70;58.30;;;;;;6271499;22;20169;-84
2023/10/31 11:20:14;;;;;;;2.67;1.40;;;24.80;58.90;;;;;;6270489;22;20279;-84
2023/10/31 11:22:46;;;;;;;0.80;0.80;;;24.80;58.10;;;;;;6272572;22;20269;-84
2023/10/31 11:25:20;;;;;;;1.33;0.80;;;24.80;58.20;;;;;;6270844;22;20520;-85
2023/10/31 11:28:12;;;;;;;2.17;1.42;;;24.90;57.90;;;;;;6270710;22;20495;-87
2023/10/31 11:30:44;;;;;;;0.98;0.82;;;25.00;57.90;;;;;;6271893;22;20771;-86
2023/10/31 11:33:16;;;;;;;1.17;1.00;;;25.00;58.00;;;;;;6272646;22;20190;-87
2023/10/31 11:35:50;;;;;;;0.45;0.45;;;25.10;58.30;;;;;;6272202;22;20519;-86
2023/10/31 11:38:33;;;;;;;2.00;1.20;;;25.10;57.70;;;;;;6271385;22;20201;-89
2023/10/31 11:41:05;;;;;;;0.50;0.50;;;25.20;57.60;;;;;;6270461;22;20165;-87
2023/10/31 11:43:50;;;;;;;1.58;0.85;;;25.20;57.90;;;;;;6275041;22;20219;-90
2023/10/31 11:46:20;;;;;;;0.40;0.40;;;25.30;58.10;;;;;;6272974;22;20240;-86
2023/10/31 11:48:51;;;;;;;0.57;0.57;;;25.30;58.00;;;;;;6269024;22;20197;-85
2023/10/31 11:51:20;;;;;;;0.93;0.73;;;25.30;57.70;;;;;;6272744;22;20177;-86
2023/10/31 11:53:50;;;;;;;5.80;0.60;;;25.40;57.40;;;;;;6271454;22;20249;-85
2023/10/31 11:56:23;;;;;;;2.20;1.02;;;25.50;57.20;;;;;;6270945;22;20166;-85
2023/10/31 11:58:59;;;;;;;1.85;1.55;;;25.50;56.30;;;;;;6271427;22;20162;-86
2023/10/31 12:01:27;;;;;;;0.85;0.80;;;25.50;56.00;;;;;;6274512;22;20169;-86
2023/10/31 12:03:56;;;;;;;1.50;1.08;;;25.60;56.10;;;;;;6271579;22;20252;-93
2023/10/31 12:06:26;;;;;;;0.77;0.57;;;25.60;56.50;;;;;;6270859;22;20210;-87
2023/10/31 12:09:02;;;;;;;1.00;0.40;;;25.70;56.90;;;;;;6270695;22;20170;-86
2023/10/31 12:11:32;;;;;;;1.67;1.15;;;25.70;57.10;;;;;;6273674;22;20169;-88
2023/10/31 12:14:04;;;;;;;0.38;0.38;;;25.70;57.00;;;;;;6271913;22;20584;-88
2023/10/31 12:16:35;;;;;;;0.50;0.47;;;25.80;57.20;;;;;;6269610;22;20290;-87
2023/10/31 12:19:05;;;;;;;0.40;0.40;;;25.90;57.30;;;;;;6270157;22;20240;-85
2023/10/31 12:21:42;;;;;;;0.55;0.55;;;25.90;57.20;;;;;;6270715;22;20253;-85
2023/10/31 12:24:13;;;;;;;0.30;0.30;;;25.90;56.00;;;;;;6273344;22;20543;-88
2023/10/31 12:26:45;;;;;;;0.98;0.85;;;25.90;55.50;;;;;;6268040;22;20200;-87
2023/10/31 12:29:15;;;;;;;0.57;0.50;;;26.00;56.20;;;;;;6271475;22;20241;-86
2023/10/31 12:31:45;;;;;;;1.83;0.70;;;26.00;56.40;;;;;;6270595;22;20170;-86
2023/10/31 12:34:16;;;;;;;0.45;0.45;;;26.00;56.60;;;;;;6271811;22;20170;-87
2023/10/31 12:36:47;;;;;;;0.57;0.38;;;26.10;56.80;;;;;;6268689;22;20165;-87
2023/10/31 12:39:18;;;;;;;0.47;0.47;;;26.10;56.80;;;;;;6270662;22;20190;-89
2023/10/31 12:41:49;;;;;;;0.63;0.52;;;26.20;56.60;;;;;;6272205;22;20168;-87
2023/10/31 12:44:24;;;;;;;4.70;0.60;;;26.10;54.90;;;;;;6270135;22;20664;-86
2023/10/31 12:46:57;;;;;;;0.50;0.50;;;26.20;55.30;;;;;;6268837;22;20620;-87
2023/10/31 12:49:27;;;;;;;0.30;0.30;;;26.20;55.50;;;;;;6273486;22;20158;-88
2023/10/31 12:52:01;;;;;;;3.20;1.65;;;26.20;55.90;;;;;;6271661;22;20215;-88
2023/10/31 12:54:31;;;;;;;1.92;0.52;;;26.30;55.20;;;;;;6272761;22;20168;-87
2023/10/31 12:57:04;;;;;;;0.68;0.50;;;26.40;55.40;;;;;;6269456;22;20174;-87
2023/10/31 12:59:34;;;;;;;0.63;0.63;;;26.50;55.80;;;;;;6270672;22;20825;-87
2023/10/31 13:02:05;;;;;;;2.42;1.27;;;26.50;55.90;;;;;;6271855;22;20633;-88
2023/10/31 13:04:35;;;;;;;0.50;0.50;;;26.70;55.20;;;;;;6271038;22;20231;-87
2023/10/31 13:07:08;;;;;;;0.30;0.30;;;26.70;55.40;;;;;;6271934;22;20189;-87
2023/10/31 13:09:40;;;;;;;0.75;0.65;;;26.80;55.80;;;;;;6272348;22;20168;-91
2023/10/31 13:12:11;;;;;;;0.30;0.30;;;26.90;55.00;;;;;;6270776;22;20165;-88
2023/10/31 13:14:40;;;;;;;0.30;0.30;;;27.00;55.10;;;;;;6271405;22;20161;-89
2023/10/31 13:17:09;;;;;;;0.30;0.30;;;27.10;55.00;;;;;;6271028;22;20268;-87
2023/10/31 13:19:38;;;;;;;0.52;0.52;;;27.20;54.90;;;;;;6268930;22;20201;-87
2023/10/31 13:22:12;;;;;;;3.97;0.65;;;27.40;53.90;;;;;;6273051;22;20634;-89
2023/10/31 13:24:42;;;;;;;1.13;0.50;;;27.50;54.10;;;;;;6272350;22;20173;-88
2023/10/31 13:27:15;;;;;;;0.20;0.20;;;27.40;54.00;;;;;;6274985;22;20192;-88
2023/10/31 13:29:45;;;;;;;0.40;0.40;;;27.40;54.40;;;;;;6275698;22;20153;-87
2023/10/31 13:32:14;;;;;;;2.25;0.90;;;27.60;54.40;;;;;;6276025;22;20165;-87
2023/10/31 13:34:43;;;;;;;2.72;1.23;;;27.60;54.40;;;;;;6273286;22;20169;-88
2023/10/31 13:37:11;;;;;;;0.40;0.40;;;27.60;54.20;;;;;;6275987;22;20237;-86
2023/10/31 13:39:41;;;;;;;1.70;1.20;;;27.60;54.30;;;;;;6276237;22;20174;-85
2023/10/31 13:42:14;;;;;;;0.30;0.30;;;27.50;54.40;;;;;;6273466;22;20165;-88
2023/10/31 13:44:45;;;;;;;0.32;0.32;;;27.40;54.20;;;;;;6272992;22;20444;-88
2023/10/31 13:47:13;;;;;;;1.10;0.40;;;27.30;54.10;;;;;;6273966;22;20277;-89
2023/10/31 13:49:42;;;;;;;0.30;0.30;;;27.20;54.20;;;;;;6274778;22;20166;-88
2023/10/31 13:52:11;;;;;;;0.40;0.40;;;27.00;54.30;;;;;;6275649;22;20169;-90
2023/10/31 13:54:40;;;;;;;0.40;0.40;;;26.90;54.50;;;;;;6275396;22;20245;-88
2023/10/31 13:57:10;;;;;;;0.45;0.30;;;26.80;54.60;;;;;;6275545;22;20165;-88
2023/10/31 13:59:41;;;;;;;1.38;0.63;;;26.70;54.40;;;;;;6275941;22;20182;-89
2023/10/31 14:02:10;;;;;;;0.77;0.77;;;26.50;54.00;;;;;;6275314;22;20162;-89
2023/10/31 14:04:40;;;;;;;1.23;1.00;;;26.40;54.30;;;;;;6273926;22;20161;-87
2023/10/31 14:07:09;;;;;;;0.65;0.65;;;26.30;54.40;;;;;;6274194;22;20205;-87
2023/10/31 14:09:45;;;;;;;2.70;1.40;;;26.20;54.50;;;;;;6273667;22;20169;-88
2023/10/31 14:12:14;;;;;;;4.13;0.93;;;26.10;54.70;;;;;;6275935;22;20189;-88
2023/10/31 14:14:44;;;;;;;0.60;0.60;;;26.00;55.00;;;;;;6274022;22;20627;-88
2023/10/31 14:17:13;;;;;;;0.30;0.30;;;25.90;55.10;;;;;;6273621;22;20166;-88
2023/10/31 14:19:44;;;;;;;0.40;0.40;;;25.80;55.20;;;;;;6273852;22;20260;-88
2023/10/31 14:22:14;;;;;;;2.60;1.05;;;25.70;55.40;;;;;;6273986;22;20165;-87
2023/10/31 14:24:43;;;;;;;1.60;0.57;;;25.60;55.40;;;;;;6274559;22;20166;-88
2023/10/31 14:27:12;;;;;;;0.60;0.60;;;25.50;55.50;;;;;;6274914;22;20186;-88
2023/10/31 14:29:44;;;;;;;3.63;1.10;;;25.40;55.60;;;;;;6274382;22;20192;-87
2023/10/31 14:32:13;;;;;;;0.35;0.35;;;25.30;55.70;;;;;;6274199;22;20162;-88
2023/10/31 14:34:42;;;;;;;2.45;0.30;;;25.20;55.90;;;;;;6272565;22;20168;-88
2023/10/31 14:37:10;;;;;;;1.05;0.90;;;25.10;56.00;;;;;;6274085;22;20185;-87
2023/10/31 14:39:40;;;;;;;0.43;0.43;;;25.00;56.10;;;;;;6274022;22;20244;-87
2023/10/31 14:42:09;;;;;;;1.00;0.47;;;24.90;56.30;;;;;;6274104;22;20166;-87
2023/10/31 14:44:38;;;;;;;0.28;0.28;;;24.80;56.40;;;;;;6273604;22;20173;-87
2023/10/31 14:47:10;;;;;;;0.40;0.40;;;24.70;56.60;;;;;;6273062;22;20162;-88
2023/10/31 14:49:40;;;;;;;2.25;0.88;;;24.60;56.70;;;;;;6273305;22;20173;-86
2023/10/31 14:52:09;;;;;;;0.40;0.40;;;24.50;56.80;;;;;;6272918;22;20162;-88
2023/10/31 14:54:44;;;;;;;1.10;1.00;;;24.50;56.90;;;;;;6274519;22;20603;-87
2023/10/31 14:57:13;;;;;;;1.13;0.40;;;24.30;57.00;;;;;;6273239;22;20168;-88
2023/10/31 14:59:42;;;;;;;1.23;0.63;;;24.30;57.20;;;;;;6272052;22;20257;-86
2023/10/31 15:02:12;;;;;;;0.32;0.32;;;24.10;57.20;;;;;;6270843;22;20219;-86
2023/10/31 15:04:42;;;;;;;0.47;0.47;;;24.10;57.40;;;;;;6269408;22;20537;-86
2023/10/31 15:07:11;;;;;;;1.05;0.95;;;24.00;57.50;;;;;;6268019;22;20257;-85
2023/10/31 15:46:31;;;;;;;0.77;0.77;;;22.70;59.10;;;;;;6256349;22;20581;-85
2023/10/31 15:55:44;;;;;;;1.25;1.15;;;22.50;59.50;;;;;;6289874;22;20288;-83
2023/10/31 16:09:39;;;;;;;3.60;1.70;;;22.30;59.90;;;;;;6302103;22;20242;-84
2023/10/31 16:48:00;;;;;;;1.42;1.08;;;21.50;61.60;;;;;;6238547;22;20527;-85
2023/10/31 16:50:32;;;;;;;1.08;1.05;;;21.40;61.70;;;;;;6240907;23;20505;-89
2023/10/31 16:53:04;;;;;;;2.63;1.02;;;21.40;61.90;;;;;;6239877;23;20572;-87
2023/10/31 16:55:33;;;;;;;1.55;1.45;;;21.30;61.90;;;;;;6240233;23;20178;-87
2023/10/31 16:58:04;;;;;;;2.45;2.25;;;21.30;62.10;;;;;;6240277;23;20608;-85
2023/10/31 17:00:33;;;;;;;1.00;0.98;;;21.20;62.20;;;;;;6242609;23;20170;-86
2023/10/31 17:03:11;;;;;;;7.78;2.05;;;21.20;62.30;;;;;;6240035;23;20264;-86
2023/10/31 17:05:41;;;;;;;3.08;1.80;;;21.10;62.40;;;;;;6238604;23;20166;-86
2023/10/31 17:08:10;;;;;;;1.95;1.05;;;21.10;62.60;;;;;;6236500;23;20201;-86
2023/10/31 17:10:40;;;;;;;2.30;1.60;;;21.00;62.70;;;;;;6241133;23;20236;-86
2023/10/31 17:13:09;;;;;;;3.53;1.98;;;21.00;63.10;;;;;;6240489;23;20213;-86
2023/10/31 17:15:40;;;;;;;4.13;2.85;;;20.90;63.20;;;;;;6238664;23;20228;-86
2023/10/31 17:18:15;;;;;;;2.27;1.23;;;20.90;63.30;;;;;;6239106;23;20624;-87
2023/10/31 17:20:47;;;;;;;3.50;2.17;;;20.90;63.30;;;;;;6243219;23;20150;-87
2023/10/31 17:23:17;;;;;;;5.30;1.53;;;20.80;63.40;;;;;;6241871;23;20170;-86
2023/10/31 17:25:47;;;;;;;5.13;2.63;;;20.80;63.50;;;;;;6239061;23;20224;-86
2023/10/31 17:28:19;;;;;;;4.67;2.63;;;20.70;63.50;;;;;;6240145;23;20497;-87
2023/10/31 17:30:51;;;;;;;1.40;1.27;;;20.70;63.60;;;;;;6239051;23;20170;-88
2023/10/31 17:33:28;;;;;;;3.97;1.80;;;20.70;63.80;;;;;;6240225;23;20181;-87
2023/10/31 17:35:57;;;;;;;10.73;3.77;;;20.60;63.90;;;;;;6240204;23;20170;-86
2023/10/31 17:38:27;;;;;;;4.90;2.30;;;20.60;64.10;;;;;;6240859;23;20174;-88
2023/10/31 17:41:02;;;;;;;5.70;2.80;;;20.60;64.20;;;;;;6240455;23;20163;-87
2023/10/31 17:46:16;;;;;;;2.97;1.63;;;20.50;64.40;;;;;;6239429;22;20269;-85
2023/10/31 17:48:52;;;;;;;2.40;2.20;;;20.50;64.60;;;;;;6239388;23;20186;-85
2023/10/31 17:51:21;;;;;;;2.20;2.00;;;20.50;64.70;;;;;;6240161;23;20271;-86
2023/10/31 17:53:53;;;;;;;1.30;1.17;;;20.40;64.80;;;;;;6241743;23;20171;-87
2023/10/31 17:56:22;;;;;;;5.80;1.83;;;20.40;64.90;;;;;;6239609;23;20217;-85
2023/10/31 17:58:55;;;;;;;4.23;2.20;;;20.40;65.00;;;;;;6239175;23;20174;-86
2023/10/31 18:01:31;;;;;;;1.60;1.33;;;20.40;65.20;;;;;;6237724;23;20175;-87
2023/10/31 18:04:02;;;;;;;2.53;1.40;;;20.30;65.80;;;;;;6237311;23;20174;-85
2023/10/31 18:06:30;;;;;;;5.80;3.10;;;20.30;65.90;;;;;;6239374;23;20169;-86
2023/10/31 18:09:00;;;;;;;3.40;2.10;;;20.30;66.10;;;;;;6240326;23;20236;-87
2023/10/31 18:11:29;;;;;;;2.40;1.17;;;20.30;66.00;;;;;;6243162;23;20224;-87
2023/10/31 18:47:51;;;;;;;1.70;1.07;;;19.80;66.60;;;;;;6027514;23;20705;-88
2023/10/31 18:51:18;;;;;;;1.37;1.20;;;19.70;66.70;;;;;;5942039;24;20205;-86
2023/10/31 19:01:48;;;;;;;1.00;0.90;;;19.60;66.90;;;;;;6203914;22;20170;-86
2023/10/31 20:15:42;;;;;;;3.00;1.30;;;19.30;69.20;;;;;;6268162;22;20225;-88
2023/10/31 20:19:03;;;;;;;1.23;1.13;;;19.30;69.20;;;;;;6285066;22;20654;-86
2023/10/31 20:46:59;;;;;;;1.70;1.60;;;19.40;69.50;;;;;;6087086;23;20244;-83
2023/10/31 20:53:32;;;;;;;0.97;0.87;;;19.40;69.70;;;;;;6220242;22;20208;-86
2023/10/31 20:56:02;;;;;;;2.33;2.07;;;19.40;69.70;;;;;;6240393;23;20168;-85
2023/10/31 20:58:32;;;;;;;2.93;2.10;;;19.40;69.90;;;;;;6240776;23;20186;-85
2023/10/31 21:01:01;;;;;;;1.83;1.60;;;19.50;69.80;;;;;;6238310;23;20177;-86
2023/10/31 21:03:31;;;;;;;2.53;1.50;;;19.50;69.80;;;;;;6239008;23;20194;-87
2023/10/31 21:06:00;;;;;;;3.03;1.53;;;19.50;69.80;;;;;;6238807;23;20167;-87
2023/10/31 21:08:29;;;;;;;2.20;1.77;;;19.50;69.90;;;;;;6240267;23;20205;-86
2023/10/31 21:10:59;;;;;;;12.13;2.50;;;19.50;70.10;;;;;;6240156;23;20194;-87
2023/10/31 21:13:28;;;;;;;1.53;1.37;;;19.40;70.70;;;;;;6239217;23;20632;-86
2023/10/31 21:15:59;;;;;;;1.67;1.30;;;19.40;70.50;;;;;;6240127;23;20166;-86
2023/10/31 21:18:28;;;;;;;2.23;1.37;;;19.40;70.40;;;;;;6240984;23;20210;-86
2023/10/31 21:20:57;;;;;;;1.57;1.47;;;19.40;70.40;;;;;;6241076;23;20240;-85
2023/10/31 21:23:26;;;;;;;2.83;1.70;;;19.40;70.70;;;;;;6241475;23;20295;-87
2023/10/31 21:25:57;;;;;;;1.83;1.57;;;19.40;70.70;;;;;;6240336;23;20163;-87
2023/10/31 21:28:26;;;;;;;1.37;1.27;;;19.30;70.60;;;;;;6239819;23;20201;-87
2023/10/31 21:30:55;;;;;;;6.13;1.83;;;19.30;70.60;;;;;;6239134;23;20190;-86
2023/10/31 21:33:27;;;;;;;4.33;2.43;;;19.30;70.60;;;;;;6240169;23;20170;-86
2023/10/31 21:35:56;;;;;;;1.73;1.50;;;19.30;70.70;;;;;;6237889;23;20517;-85
2023/10/31 21:38:26;;;;;;;2.67;2.47;;;19.30;71.00;;;;;;6239374;23;20176;-85
2023/10/31 21:40:55;;;;;;;1.03;0.93;;;19.20;70.90;;;;;;6238675;23;20284;-86
2023/10/31 21:43:23;;;;;;;2.50;1.83;;;19.20;71.60;;;;;;6239638;23;20166;-87
2023/10/31 21:45:53;;;;;;;3.37;2.33;;;19.20;70.70;;;;;;6241201;23;20214;-85
2023/10/31 21:48:23;;;;;;;1.47;1.37;;;19.20;70.70;;;;;;6240905;23;20162;-87
2023/10/31 21:50:53;;;;;;;4.17;2.13;;;19.20;70.70;;;;;;6241750;23;20194;-86
2023/10/31 21:53:24;;;;;;;3.87;2.03;;;19.20;70.80;;;;;;6241019;22;20189;-87
2023/10/31 21:55:54;;;;;;;1.40;1.23;;;19.20;70.80;;;;;;6240238;23;20175;-87
2023/10/31 21:58:22;;;;;;;1.23;1.00;;;19.20;70.70;;;;;;6241463;23;20474;-85
2023/10/31 22:00:51;;;;;;;2.00;1.30;;;19.20;70.70;;;;;;6240536;23;20171;-86
2023/10/31 22:03:23;;;;;;;2.07;1.93;;;19.20;70.70;;;;;;6243430;23;20170;-86
2023/10/31 22:05:53;;;;;;;1.33;1.13;;;19.20;70.50;;;;;;6240375;23;20175;-86
2023/10/31 22:08:23;;;;;;;1.93;1.30;;;19.30;70.60;;;;;;6242049;23;20224;-85
2023/10/31 22:10:52;;;;;;;8.60;1.97;;;19.30;70.60;;;;;;6240998;23;20229;-87
2023/10/31 22:13:21;;;;;;;2.30;2.10;;;19.30;70.50;;;;;;6242097;23;20167;-85
2023/10/31 22:15:49;;;;;;;3.50;2.67;;;19.40;70.60;;;;;;6240794;23;20166;-86
2023/10/31 22:18:18;;;;;;;1.87;1.67;;;19.40;70.50;;;;;;6238979;23;20209;-87
2023/10/31 22:20:49;;;;;;;4.33;2.60;;;19.40;70.40;;;;;;6240046;23;20168;-85
2023/10/31 22:23:19;;;;;;;3.97;1.23;;;19.30;70.30;;;;;;6240381;23;20171;-85
2023/10/31 22:25:49;;;;;;;2.77;2.17;;;19.30;70.20;;;;;;6240675;23;20174;-85
2023/10/31 22:28:18;;;;;;;1.20;1.10;;;19.30;70.40;;;;;;6240021;23;20169;-85
2023/10/31 22:30:46;;;;;;;5.23;3.60;;;19.30;70.40;;;;;;6239655;23;20662;-86
2023/10/31 22:33:15;;;;;;;1.63;1.53;;;19.20;70.50;;;;;;6238196;23;20186;-86
2023/10/31 22:35:44;;;;;;;6.23;3.13;;;19.20;70.50;;;;;;6210993;23;20170;-86
2023/10/31 22:38:15;;;;;;;3.90;2.70;;;19.20;70.50;;;;;;6239978;23;20213;-86
2023/10/31 22:40:46;;;;;;;1.10;1.10;;;19.20;70.40;;;;;;6238854;23;20174;-85
2023/10/31 22:43:15;;;;;;;4.90;2.90;;;19.20;70.40;;;;;;6215371;23;20501;-87
2023/10/31 22:45:44;;;;;;;2.27;1.77;;;19.20;70.40;;;;;;6236936;23;20166;-85
2023/10/31 22:48:12;;;;;;;3.93;2.83;;;19.20;70.30;;;;;;6239858;23;20167;-85
2023/10/31 22:50:42;;;;;;;4.83;2.10;;;19.20;70.20;;;;;;6239796;23;20717;-87
2023/10/31 22:53:11;;;;;;;3.10;2.83;;;19.10;70.50;;;;;;6240084;22;20166;-87
2023/10/31 22:55:39;;;;;;;3.03;2.17;;;19.10;70.50;;;;;;6242376;22;20225;-84
2023/10/31 22:58:11;;;;;;;1.73;1.53;;;19.10;70.50;;;;;;6240823;23;20194;-87
2023/10/31 23:00:41;;;;;;;2.23;1.83;;;19.00;70.40;;;;;;6236985;23;20666;-87
2023/10/31 23:03:10;;;;;;;2.57;2.37;;;19.00;70.40;;;;;;6239152;23;20209;-87
2023/10/31 23:05:39;;;;;;;1.70;1.40;;;19.00;70.40;;;;;;6239874;23;20194;-85
2023/10/31 23:08:08;;;;;;;1.90;1.27;;;19.00;70.40;;;;;;6240111;23;20686;-86
2023/10/31 23:10:37;;;;;;;2.10;1.90;;;19.00;70.40;;;;;;6240355;23;20218;-86
2023/10/31 23:13:06;;;;;;;3.80;2.30;;;19.00;70.40;;;;;;6242247;23;20245;-87
2023/10/31 23:15:36;;;;;;;5.57;3.23;;;19.00;70.40;;;;;;6240596;23;20253;-86
2023/10/31 23:18:05;;;;;;;10.47;2.07;;;19.00;70.60;;;;;;6240673;23;20162;-85
2023/10/31 23:20:34;;;;;;;4.80;1.83;;;18.90;70.40;;;;;;6240663;23;20176;-86
2023/10/31 23:23:04;;;;;;;2.83;2.20;;;18.90;71.40;;;;;;6242298;23;20162;-88
2023/10/31 23:25:32;;;;;;;3.80;1.90;;;18.90;70.50;;;;;;6248595;23;20202;-86
2023/10/31 23:28:04;;;;;;;2.83;2.00;;;18.90;70.50;;;;;;6261757;23;20174;-86
2023/10/31 23:30:33;;;;;;;9.80;3.00;;;18.90;70.50;;;;;;6260571;23;20246;-86
2023/10/31 23:33:03;;;;;;;4.17;2.17;;;18.80;70.50;;;;;;6260897;23;20172;-86
2023/10/31 23:35:31;;;;;;;3.23;2.60;;;18.80;70.40;;;;;;6259742;23;20504;-85
2023/10/31 23:38:01;;;;;;;7.67;2.37;;;18.70;70.20;;;;;;6247516;23;20616;-86
2023/10/31 23:40:30;;;;;;;2.10;1.90;;;18.70;70.30;;;;;;6244300;23;20189;-86
2023/10/31 23:43:00;;;;;;;3.47;2.63;;;18.70;70.20;;;;;;6243639;23;20163;-87
2023/10/31 23:45:31;;;;;;;1.93;1.77;;;18.70;70.20;;;;;;6243150;23;20325;-84
2023/10/31 23:48:05;;;;;;;4.17;2.27;;;18.60;70.20;;;;;;6243164;23;20570;-87
2023/10/31 23:50:36;;;;;;;2.17;1.70;;;18.60;70.30;;;;;;6241113;23;20224;-87
2023/10/31 23:53:05;;;;;;;1.07;1.00;;;18.60;70.20;;;;;;6239920;23;20166;-85
2023/10/31 23:55:34;;;;;;;2.07;1.87;;;18.60;70.20;;;;;;6241322;22;20273;-88
2023/10/31 23:58:03;;;;;;;5.63;1.60;;;18.70;70.20;;;;;;6238642;23;20166;-86
